createdAt,value
2019-05-14T00:00:23.448Z,91.70
2019-05-14T00:02:53.052Z,91.70
2019-05-14T00:05:22.762Z,91.70
2019-05-14T00:07:52.378Z,91.90
2019-05-14T00:10:22.081Z,91.80
2019-05-14T00:12:51.692Z,92.00
2019-05-14T00:15:21.700Z,92.30
2019-05-14T00:17:52.296Z,91.90
2019-05-14T00:20:23.276Z,92.40
2019-05-14T00:22:52.886Z,92.30
2019-05-14T00:25:22.493Z,92.10
2019-05-14T00:27:52.203Z,92.10
2019-05-14T00:30:22.128Z,92.00
2019-05-14T00:32:52.956Z,92.00
2019-05-14T00:35:22.562Z,91.80
2019-05-14T00:37:52.275Z,92.00
2019-05-14T00:40:22.138Z,92.20
2019-05-14T00:42:53.414Z,92.10
2019-05-14T00:45:23.144Z,92.00
2019-05-14T00:47:52.762Z,92.30
2019-05-14T00:50:22.564Z,91.90
2019-05-14T00:52:52.172Z,91.90
2019-05-14T00:55:22.341Z,92.20
2019-05-14T00:57:52.365Z,92.20
2019-05-14T01:00:22.231Z,92.00
2019-05-14T01:02:51.997Z,92.40
2019-05-14T01:05:21.850Z,92.30
2019-05-14T01:07:51.601Z,92.40
2019-05-14T01:10:22.166Z,92.40
2019-05-14T01:12:52.223Z,92.30
2019-05-14T01:15:22.031Z,92.50
2019-05-14T01:17:51.815Z,92.40
2019-05-14T01:20:22.060Z,92.20
2019-05-14T01:22:51.795Z,92.80
2019-05-14T01:25:23.670Z,93.00
2019-05-14T01:27:52.728Z,93.10
2019-05-14T01:30:22.538Z,93.30
2019-05-14T01:32:52.153Z,93.30
2019-05-14T01:35:22.262Z,93.10
2019-05-14T01:37:52.329Z,93.00
2019-05-14T01:40:22.096Z,92.90
2019-05-14T01:42:52.255Z,92.90
2019-05-14T01:45:27.970Z,92.80
2019-05-14T01:47:54.186Z,92.70
2019-05-14T01:50:23.806Z,92.80
2019-05-14T01:52:53.515Z,92.90
2019-05-14T01:55:23.123Z,93.20
2019-05-14T01:57:52.832Z,93.10
2019-05-14T02:00:22.790Z,93.10
2019-05-14T02:02:52.586Z,93.10
2019-05-14T02:05:22.457Z,93.20
2019-05-14T02:07:52.607Z,93.50
2019-05-14T02:10:22.762Z,93.70
2019-05-14T02:12:52.527Z,93.80
2019-05-14T02:15:35.276Z,93.70
2019-05-14T02:17:53.486Z,93.70
2019-05-14T02:20:23.194Z,93.70
2019-05-14T02:22:52.802Z,93.60
2019-05-14T02:25:22.412Z,93.60
2019-05-14T02:27:52.113Z,93.60
2019-05-14T02:30:28.540Z,93.80
2019-05-14T02:32:53.181Z,93.80
2019-05-14T02:35:22.787Z,93.70
2019-05-14T02:37:52.395Z,93.80
2019-05-14T02:40:22.105Z,93.90
2019-05-14T02:42:51.716Z,93.90
2019-05-14T02:45:21.631Z,93.90
2019-05-14T02:47:51.242Z,93.90
2019-05-14T02:50:21.050Z,94.00
2019-05-14T02:52:50.656Z,93.90
2019-05-14T02:55:20.266Z,93.90
2019-05-14T02:57:50.897Z,94.10
2019-05-14T03:00:20.711Z,94.20
2019-05-14T03:02:50.337Z,94.20
2019-05-14T03:05:20.233Z,94.20
2019-05-14T03:07:50.274Z,94.20
2019-05-14T03:10:20.185Z,94.00
2019-05-14T03:12:50.355Z,93.80
2019-05-14T03:15:20.429Z,93.00
2019-05-14T03:17:50.116Z,92.60
2019-05-14T03:20:20.850Z,93.10
2019-05-14T03:23:02.601Z,93.00
2019-05-14T03:25:21.806Z,92.60
2019-05-14T03:27:51.516Z,92.40
2019-05-14T03:30:23.340Z,92.50
2019-05-14T03:32:53.678Z,92.20
2019-05-14T03:35:33.211Z,92.20
2019-05-14T03:37:54.869Z,92.40
2019-05-14T03:40:24.474Z,92.50
2019-05-14T03:42:54.082Z,92.60
2019-05-14T03:45:23.687Z,92.70
2019-05-14T03:47:53.398Z,92.70
2019-05-14T03:51:00.190Z,92.60
2019-05-14T03:53:30.301Z,92.80
2019-05-14T03:56:00.762Z,92.80
2019-05-14T03:58:30.819Z,92.80
2019-05-14T04:01:02.319Z,92.80
2019-05-14T04:03:32.724Z,92.80
2019-05-14T04:06:02.897Z,93.10
2019-05-14T04:08:34.965Z,92.80
2019-05-14T04:11:04.740Z,92.60
2019-05-14T04:13:35.751Z,92.30
2019-05-14T04:16:05.472Z,92.30
2019-05-14T04:18:39.741Z,92.40
2019-05-14T04:21:10.127Z,92.60
2019-05-14T04:23:40.746Z,92.70
2019-05-14T04:26:12.485Z,92.90
2019-05-14T04:28:45.231Z,92.90
2019-05-14T04:31:18.926Z,92.70
2019-05-14T04:33:49.996Z,92.50
2019-05-14T04:36:19.763Z,92.20
2019-05-14T04:38:54.697Z,92.20
2019-05-14T04:41:20.991Z,92.00
2019-05-14T04:43:50.657Z,92.00
2019-05-14T04:46:20.517Z,92.20
2019-05-14T04:48:51.176Z,92.00
2019-05-14T04:51:20.994Z,92.00
2019-05-14T04:53:50.741Z,91.90
2019-05-14T04:56:20.705Z,91.70
2019-05-14T04:58:50.578Z,91.30
2019-05-14T05:01:20.941Z,91.00
2019-05-14T05:03:51.066Z,90.60
2019-05-14T05:06:20.873Z,90.50
2019-05-14T05:08:50.533Z,90.30
2019-05-14T05:11:21.218Z,90.80
2019-05-14T05:13:52.358Z,90.10
2019-05-14T05:16:21.968Z,90.30
2019-05-14T05:18:51.582Z,89.70
2019-05-14T05:21:21.188Z,90.00
2019-05-14T05:23:50.796Z,89.30
2019-05-14T05:26:23.471Z,88.80
2019-05-14T05:29:03.625Z,87.80
2019-05-14T05:31:24.428Z,87.40
2019-05-14T05:33:54.035Z,87.70
2019-05-14T05:36:23.643Z,86.80
2019-05-14T05:38:53.251Z,86.60
2019-05-14T05:41:22.859Z,85.90
2019-05-14T05:43:54.722Z,85.40
2019-05-14T05:46:24.331Z,83.70
2019-05-14T05:48:53.938Z,81.30
2019-05-14T05:51:23.544Z,81.10
2019-05-14T05:53:53.358Z,80.60
2019-05-14T05:56:22.962Z,79.60
2019-05-14T05:58:52.572Z,78.50
2019-05-14T06:01:22.282Z,77.80
2019-05-14T06:03:51.898Z,78.20
2019-05-14T06:06:21.702Z,78.90
2019-05-14T06:08:51.310Z,78.30
2019-05-14T06:11:20.920Z,79.30
2019-05-14T06:13:50.526Z,79.50
2019-05-14T06:16:20.133Z,77.80
2019-05-14T06:18:49.743Z,77.70
2019-05-14T06:21:19.556Z,76.60
2019-05-14T06:23:50.186Z,76.30
2019-05-14T06:26:19.900Z,77.40
2019-05-14T06:28:49.920Z,77.10
2019-05-14T06:31:19.727Z,77.30
2019-05-14T06:33:49.543Z,77.50
2019-05-14T06:36:19.614Z,77.20
2019-05-14T06:38:50.700Z,77.60
2019-05-14T06:41:20.311Z,77.40
2019-05-14T06:43:49.917Z,76.80
2019-05-14T06:46:19.730Z,75.90
2019-05-14T06:48:50.362Z,76.00
2019-05-14T06:51:20.362Z,75.90
2019-05-14T06:53:50.241Z,75.50
2019-05-14T06:56:21.752Z,74.90
2019-05-14T06:58:51.254Z,75.00
2019-05-14T07:01:20.961Z,74.80
2019-05-14T07:03:50.570Z,74.30
2019-05-14T07:06:20.180Z,67.90
2019-05-14T07:08:52.689Z,46.90
2019-05-14T07:11:21.135Z,36.40
2019-05-14T07:13:50.741Z,32.40
2019-05-14T07:16:20.349Z,33.40
2019-05-14T07:18:53.941Z,31.00
2019-05-14T07:21:21.317Z,28.90
2019-05-14T07:23:50.919Z,28.30
2019-05-14T07:26:20.522Z,28.50
2019-05-14T07:28:50.133Z,28.00
2019-05-14T07:31:19.739Z,28.70
2019-05-14T07:33:49.657Z,29.10
2019-05-14T07:36:19.376Z,28.20
2019-05-14T07:38:49.376Z,29.60
2019-05-14T07:41:19.572Z,28.50
2019-05-14T07:43:49.415Z,28.50
2019-05-14T07:46:19.407Z,27.20
2019-05-14T07:49:03.843Z,27.20
2019-05-14T07:51:20.389Z,29.00
2019-05-14T07:53:51.635Z,27.90
2019-05-14T07:56:21.244Z,26.10
2019-05-14T07:58:50.954Z,25.10
2019-05-14T08:01:20.663Z,26.70
2019-05-14T08:03:50.270Z,30.00
2019-05-14T08:06:19.982Z,30.40
2019-05-14T08:08:50.511Z,29.60
2019-05-14T08:11:20.119Z,29.60
2019-05-14T08:13:49.829Z,29.90
2019-05-14T08:16:19.541Z,32.80
2019-05-14T08:18:49.151Z,39.60
2019-05-14T08:21:19.578Z,45.50
2019-05-14T08:23:49.494Z,46.30
2019-05-14T08:26:19.442Z,47.80
2019-05-14T08:28:49.237Z,49.90
2019-05-14T08:31:19.849Z,51.60
2019-05-14T08:33:49.456Z,53.10
2019-05-14T08:36:19.272Z,52.40
2019-05-14T08:38:50.063Z,53.20
2019-05-14T08:41:20.148Z,52.30
2019-05-14T08:43:50.034Z,51.20
2019-05-14T08:46:19.753Z,51.20
2019-05-14T08:48:49.919Z,50.70
2019-05-14T08:51:19.786Z,49.60
2019-05-14T08:53:50.538Z,50.20
2019-05-14T08:56:20.333Z,48.80
2019-05-14T08:58:50.041Z,48.90
2019-05-14T09:01:19.917Z,48.40
2019-05-14T09:03:49.954Z,48.00
2019-05-14T09:06:19.786Z,48.60
2019-05-14T09:08:49.970Z,49.30
2019-05-14T09:11:24.597Z,48.20
2019-05-14T09:13:51.377Z,47.20
2019-05-14T09:16:38.060Z,45.90
2019-05-14T09:18:52.229Z,46.40
2019-05-14T09:21:21.837Z,45.80
2019-05-14T09:23:51.445Z,44.50
2019-05-14T09:26:21.040Z,44.40
2019-05-14T09:28:50.660Z,44.90
2019-05-14T09:31:20.269Z,43.30
2019-05-14T09:33:49.981Z,42.40
2019-05-14T09:36:23.957Z,42.90
2019-05-14T09:38:50.833Z,41.90
2019-05-14T09:41:20.858Z,40.10
2019-05-14T09:43:50.563Z,41.60
2019-05-14T09:46:20.271Z,40.80
2019-05-14T09:48:49.981Z,41.90
2019-05-14T09:51:19.694Z,43.00
2019-05-14T09:53:49.402Z,44.30
2019-05-14T09:56:19.115Z,45.80
2019-05-14T09:58:49.628Z,45.10
2019-05-14T10:01:20.686Z,46.20
2019-05-14T10:03:50.392Z,46.20
2019-05-14T10:06:20.912Z,47.10
2019-05-14T10:08:50.945Z,48.10
2019-05-14T10:11:20.554Z,47.70
2019-05-14T10:13:50.262Z,47.70
2019-05-14T10:16:20.891Z,47.30
2019-05-14T10:18:52.866Z,48.70
2019-05-14T10:21:21.747Z,48.30
2019-05-14T10:23:52.377Z,46.60
2019-05-14T10:26:21.986Z,46.50
2019-05-14T10:28:51.593Z,48.00
2019-05-14T10:31:21.201Z,49.80
2019-05-14T10:33:50.808Z,49.20
2019-05-14T10:36:20.521Z,47.10
2019-05-14T10:38:50.229Z,45.10
2019-05-14T10:41:19.943Z,44.30
2019-05-14T10:43:49.950Z,45.50
2019-05-14T10:46:20.589Z,44.10
2019-05-14T10:48:50.201Z,45.30
2019-05-14T10:51:19.906Z,43.60
2019-05-14T10:53:49.617Z,46.20
2019-05-14T10:56:19.776Z,46.70
2019-05-14T10:58:49.554Z,47.50
2019-05-14T11:01:22.649Z,47.80
2019-05-14T11:03:51.530Z,47.80
2019-05-14T11:06:21.242Z,47.30
2019-05-14T11:08:50.852Z,47.00
2019-05-14T11:11:20.661Z,48.20
2019-05-14T11:13:50.268Z,47.40
2019-05-14T11:16:19.998Z,47.00
2019-05-14T11:18:50.177Z,47.30
2019-05-14T11:21:26.356Z,48.50
2019-05-14T11:23:51.264Z,48.80
2019-05-14T11:26:20.868Z,50.30
2019-05-14T11:28:50.579Z,48.80
2019-05-14T11:31:20.289Z,51.10
2019-05-14T11:33:50.078Z,50.60
2019-05-14T11:36:20.016Z,50.90
2019-05-14T11:38:50.956Z,51.20
2019-05-14T11:41:20.769Z,51.10
2019-05-14T11:43:50.385Z,50.20
2019-05-14T11:46:33.502Z,49.50
2019-05-14T11:48:51.338Z,49.90
2019-05-14T11:51:53.079Z,50.00
2019-05-14T11:53:52.188Z,50.40
2019-05-14T11:56:21.795Z,50.80
2019-05-14T11:58:51.404Z,50.70
2019-05-14T12:01:21.113Z,50.80
2019-05-14T12:03:50.823Z,50.50
2019-05-14T12:06:20.535Z,49.90
2019-05-14T12:08:50.141Z,49.40
2019-05-14T12:11:19.757Z,48.50
2019-05-14T12:13:49.458Z,45.90
2019-05-14T12:16:19.170Z,43.00
2019-05-14T12:18:48.868Z,43.60
2019-05-14T12:21:18.489Z,44.10
2019-05-14T12:23:48.095Z,42.90
2019-05-14T12:26:19.064Z,42.00
2019-05-14T12:28:49.534Z,39.30
2019-05-14T12:31:19.381Z,40.00
2019-05-14T12:33:50.019Z,40.00
2019-05-14T12:36:20.233Z,39.90
2019-05-14T12:38:49.883Z,41.20
2019-05-14T12:41:19.696Z,42.70
2019-05-14T12:43:49.464Z,40.00
2019-05-14T12:46:20.375Z,41.40
2019-05-14T12:48:50.115Z,41.10
2019-05-14T12:51:19.724Z,40.90
2019-05-14T12:53:49.537Z,41.70
2019-05-14T12:56:19.166Z,43.20
2019-05-14T12:58:49.774Z,42.10
2019-05-14T13:01:19.960Z,40.70
2019-05-14T13:03:50.122Z,41.30
2019-05-14T13:06:19.827Z,42.30
2019-05-14T13:08:49.501Z,43.10
2019-05-14T13:11:19.455Z,41.40
2019-05-14T13:13:49.322Z,40.70
2019-05-14T13:16:19.615Z,39.90
2019-05-14T13:18:50.115Z,39.40
2019-05-14T13:21:20.137Z,40.00
2019-05-14T13:23:49.745Z,40.60
2019-05-14T13:26:19.455Z,41.60
2019-05-14T13:28:50.789Z,44.00
2019-05-14T13:31:20.312Z,44.70
2019-05-14T13:33:49.917Z,43.50
2019-05-14T13:36:20.739Z,43.30
2019-05-14T13:38:51.597Z,41.40
2019-05-14T13:41:21.710Z,41.70
2019-05-14T13:43:51.323Z,43.40
2019-05-14T13:46:22.158Z,43.90
2019-05-14T13:48:51.764Z,42.70
2019-05-14T13:51:21.377Z,42.20
2019-05-14T13:53:52.953Z,43.20
2019-05-14T13:56:22.636Z,43.60
2019-05-14T13:58:52.345Z,43.70
2019-05-14T14:01:22.168Z,44.30
2019-05-14T14:04:03.619Z,43.70
2019-05-14T14:06:23.112Z,45.30
2019-05-14T14:08:52.826Z,45.20
2019-05-14T14:11:22.433Z,44.90
2019-05-14T14:13:52.040Z,43.60
2019-05-14T14:16:21.752Z,43.40
2019-05-14T14:18:51.463Z,43.30
2019-05-14T14:21:21.171Z,42.60
2019-05-14T14:23:50.881Z,42.70
2019-05-14T14:26:20.694Z,44.60
2019-05-14T14:28:50.407Z,45.10
2019-05-14T14:31:20.026Z,45.70
2019-05-14T14:33:49.652Z,45.70
2019-05-14T14:36:20.211Z,43.70
2019-05-14T14:38:50.077Z,43.60
2019-05-14T14:41:19.905Z,44.00
2019-05-14T14:43:53.642Z,44.40
2019-05-14T14:46:20.733Z,42.70
2019-05-14T14:48:50.352Z,42.40
2019-05-14T14:51:20.152Z,42.50
2019-05-14T14:53:59.221Z,44.60
2019-05-14T14:56:21.222Z,44.30
2019-05-14T14:58:51.851Z,46.10
2019-05-14T15:01:21.553Z,48.70
2019-05-14T15:03:51.365Z,48.70
2019-05-14T15:06:21.387Z,48.50
2019-05-14T15:08:51.201Z,47.80
2019-05-14T15:11:20.907Z,47.10
2019-05-14T15:13:50.616Z,47.50
2019-05-14T15:16:20.501Z,49.00
2019-05-14T15:18:50.242Z,49.80
2019-05-14T15:21:19.852Z,48.60
2019-05-14T15:24:05.939Z,48.50
2019-05-14T15:26:20.807Z,48.40
2019-05-14T15:28:50.428Z,47.40
2019-05-14T15:31:20.024Z,47.70
2019-05-14T15:33:50.892Z,48.40
2019-05-14T15:36:20.875Z,50.10
2019-05-14T15:38:50.488Z,49.90
2019-05-14T15:41:20.680Z,49.50
2019-05-14T15:43:50.415Z,49.40
2019-05-14T15:46:20.230Z,49.60
2019-05-14T15:48:49.837Z,50.30
2019-05-14T15:51:19.895Z,50.30
2019-05-14T15:54:06.373Z,51.00
2019-05-14T15:56:20.915Z,52.50
2019-05-14T15:58:50.526Z,52.30
2019-05-14T16:01:20.235Z,52.60
2019-05-14T16:03:50.967Z,50.60
2019-05-14T16:06:20.676Z,50.50
2019-05-14T16:08:50.285Z,51.00
2019-05-14T16:11:19.995Z,51.20
2019-05-14T16:13:49.704Z,51.50
2019-05-14T16:16:19.813Z,52.00
2019-05-14T16:18:49.641Z,50.80
2019-05-14T16:21:19.349Z,50.10
2019-05-14T16:23:48.956Z,50.90
2019-05-14T16:26:18.909Z,52.10
2019-05-14T16:28:50.050Z,50.80
2019-05-14T16:31:19.828Z,51.50
2019-05-14T16:33:49.928Z,51.60
2019-05-14T16:36:20.794Z,52.30
2019-05-14T16:38:50.498Z,52.70
2019-05-14T16:41:20.205Z,53.00
2019-05-14T16:43:49.915Z,52.70
2019-05-14T16:46:19.634Z,52.70
2019-05-14T16:48:49.234Z,52.00
2019-05-14T16:51:19.380Z,52.20
2019-05-14T16:53:50.193Z,52.40
2019-05-14T16:56:19.901Z,53.40
2019-05-14T16:58:49.712Z,53.50
2019-05-14T17:01:19.510Z,54.40
2019-05-14T17:03:49.683Z,54.20
2019-05-14T17:06:19.870Z,55.40
2019-05-14T17:08:49.476Z,54.90
2019-05-14T17:11:19.185Z,55.00
2019-05-14T17:13:49.200Z,55.00
2019-05-14T17:16:19.525Z,54.70
2019-05-14T17:18:49.653Z,55.80
2019-05-14T17:21:19.563Z,55.70
2019-05-14T17:23:50.204Z,56.80
2019-05-14T17:26:20.835Z,57.20
2019-05-14T17:28:50.421Z,57.20
2019-05-14T17:31:20.146Z,58.00
2019-05-14T17:33:49.753Z,58.40
2019-05-14T17:36:19.465Z,58.90
2019-05-14T17:38:49.426Z,59.00
2019-05-14T17:41:19.657Z,59.20
2019-05-14T17:43:49.668Z,60.20
2019-05-14T17:46:19.534Z,59.80
2019-05-14T17:48:49.243Z,59.60
2019-05-14T17:51:18.954Z,59.80
2019-05-14T17:53:48.666Z,60.90
2019-05-14T17:56:19.134Z,61.80
2019-05-14T17:58:49.622Z,60.80
2019-05-14T18:01:22.504Z,60.90
2019-05-14T18:03:53.734Z,62.20
2019-05-14T18:06:23.353Z,61.80
2019-05-14T18:08:53.070Z,61.90
2019-05-14T18:11:22.780Z,62.00
2019-05-14T18:13:53.734Z,62.40
2019-05-14T18:16:25.273Z,62.10
2019-05-14T18:18:54.983Z,62.50
2019-05-14T18:21:24.693Z,62.90
2019-05-14T18:23:54.404Z,62.60
2019-05-14T18:26:24.011Z,62.30
2019-05-14T18:28:53.724Z,63.30
2019-05-14T18:31:23.431Z,62.90
2019-05-14T18:33:53.245Z,63.30
2019-05-14T18:36:22.855Z,64.10
2019-05-14T18:38:52.463Z,64.20
2019-05-14T18:41:23.882Z,64.70
2019-05-14T18:43:54.748Z,65.30
2019-05-14T18:46:24.357Z,65.90
2019-05-14T18:48:54.067Z,64.30
2019-05-14T18:51:23.678Z,64.90
2019-05-14T18:53:53.385Z,65.20
2019-05-14T18:56:24.409Z,65.30
2019-05-14T18:58:54.891Z,65.50
2019-05-14T19:01:24.565Z,65.90
2019-05-14T19:03:54.377Z,65.70
2019-05-14T19:06:28.466Z,66.10
2019-05-14T19:08:58.309Z,66.40
2019-05-14T19:11:28.158Z,66.60
2019-05-14T19:13:58.958Z,67.20
2019-05-14T19:16:29.583Z,67.20
2019-05-14T19:19:00.727Z,68.10
2019-05-14T19:21:31.669Z,68.20
2019-05-14T19:24:01.274Z,68.70
2019-05-14T19:26:36.765Z,69.60
2019-05-14T19:29:08.668Z,69.10
2019-05-14T19:31:40.030Z,69.20
2019-05-14T19:34:11.177Z,69.00
2019-05-14T19:36:41.809Z,69.10
2019-05-14T19:39:11.522Z,69.20
2019-05-14T19:41:41.225Z,73.20
2019-05-14T19:44:10.941Z,74.70
2019-05-14T19:46:40.547Z,75.60
2019-05-14T19:49:10.155Z,76.60
2019-05-14T19:51:39.863Z,77.00
2019-05-14T19:54:11.416Z,77.30
2019-05-14T19:56:52.396Z,77.40
2019-05-14T19:59:12.578Z,78.10
2019-05-14T20:01:42.186Z,77.80
2019-05-14T20:04:12.312Z,78.20
2019-05-14T20:06:42.925Z,78.40
2019-05-14T20:09:13.162Z,78.60
2019-05-14T20:11:42.868Z,79.30
2019-05-14T20:14:12.479Z,79.70
2019-05-14T20:16:42.085Z,79.90
2019-05-14T20:19:11.797Z,79.80
2019-05-14T20:21:41.410Z,80.10
2019-05-14T20:24:11.013Z,79.30
2019-05-14T20:26:40.621Z,79.10
2019-05-14T20:29:10.946Z,78.80
2019-05-14T20:31:40.761Z,78.00
2019-05-14T20:34:10.468Z,78.30
2019-05-14T20:36:40.079Z,79.80
2019-05-14T20:39:10.810Z,80.60
2019-05-14T20:41:40.623Z,80.00
2019-05-14T20:44:10.230Z,80.30
2019-05-14T20:46:39.838Z,80.40
2019-05-14T20:49:09.959Z,80.60
2019-05-14T20:51:39.565Z,80.80
2019-05-14T20:54:09.180Z,80.70
2019-05-14T20:56:40.208Z,81.20
2019-05-14T20:59:10.236Z,81.00
2019-05-14T21:01:41.039Z,81.40
2019-05-14T21:04:10.648Z,82.40
2019-05-14T21:06:41.874Z,82.40
2019-05-14T21:09:13.181Z,81.90
2019-05-14T21:11:42.573Z,81.30
2019-05-14T21:14:12.147Z,80.80
2019-05-14T21:16:41.892Z,82.10
2019-05-14T21:19:11.469Z,81.90
2019-05-14T21:21:41.106Z,82.40
2019-05-14T21:24:11.739Z,82.70
2019-05-14T21:26:41.346Z,82.80
2019-05-14T21:29:10.888Z,82.40
2019-05-14T21:31:40.665Z,83.20
2019-05-14T21:34:10.273Z,83.30
2019-05-14T21:36:41.490Z,83.20
2019-05-14T21:39:11.096Z,82.60
2019-05-14T21:41:40.704Z,81.90
2019-05-14T21:44:10.271Z,81.90
2019-05-14T21:46:40.072Z,82.80
2019-05-14T21:49:11.137Z,82.90
2019-05-14T21:51:40.907Z,83.10
2019-05-14T21:54:10.372Z,83.40
2019-05-14T21:56:40.123Z,83.40
2019-05-14T21:59:09.816Z,84.10
2019-05-14T22:01:39.732Z,83.90
2019-05-14T22:04:11.588Z,83.60
2019-05-14T22:06:41.406Z,82.90
2019-05-14T22:09:12.466Z,83.00
2019-05-14T22:11:41.935Z,82.80
2019-05-14T22:14:11.652Z,83.00
2019-05-14T22:16:41.183Z,83.30
2019-05-14T22:19:10.647Z,83.10
2019-05-14T22:21:41.783Z,83.50
2019-05-14T22:24:11.749Z,83.70
2019-05-14T22:26:42.349Z,83.70
2019-05-14T22:29:12.820Z,84.40
2019-05-14T22:31:43.384Z,84.80
2019-05-14T22:34:13.048Z,84.00
2019-05-14T22:36:42.655Z,84.50
2019-05-14T22:39:12.204Z,84.90
2019-05-14T22:41:41.699Z,84.30
2019-05-14T22:44:11.375Z,84.20
2019-05-14T22:46:40.955Z,84.50
2019-05-14T22:49:10.559Z,84.20
2019-05-14T22:51:40.200Z,83.70
2019-05-14T22:54:09.821Z,83.70
2019-05-14T22:56:39.279Z,83.90
2019-05-14T22:59:08.887Z,84.10
2019-05-14T23:01:38.831Z,84.40
2019-05-14T23:04:09.570Z,84.50
2019-05-14T23:06:39.059Z,84.20
2019-05-14T23:09:09.160Z,84.20
2019-05-14T23:11:38.835Z,84.50
2019-05-14T23:14:08.621Z,84.60
2019-05-14T23:16:41.790Z,85.30
2019-05-14T23:19:09.470Z,85.10
2019-05-14T23:21:39.292Z,84.70
2019-05-14T23:24:09.337Z,84.50
2019-05-14T23:26:38.986Z,85.20
2019-05-14T23:29:08.486Z,85.20
2019-05-14T23:31:38.600Z,85.50
2019-05-14T23:34:08.448Z,86.60
2019-05-14T23:36:38.883Z,86.10
2019-05-14T23:39:09.078Z,86.50
2019-05-14T23:41:39.117Z,85.90
2019-05-14T23:44:08.727Z,86.30
2019-05-14T23:46:39.355Z,87.00
2019-05-14T23:49:09.066Z,86.50
2019-05-14T23:51:38.659Z,87.70
2019-05-14T23:54:08.901Z,87.40
2019-05-14T23:56:39.520Z,87.40
2019-05-14T23:59:09.497Z,87.60
